createdAt,value
2019-01-23T00:01:19.555Z,26.50
2019-01-23T00:03:48.866Z,28.33
2019-01-23T00:06:18.165Z,27.97
2019-01-23T00:08:47.491Z,26.13
2019-01-23T00:11:16.797Z,26.13
2019-01-23T00:13:46.126Z,25.93
2019-01-23T00:16:15.454Z,26.03
2019-01-23T00:18:44.797Z,25.73
2019-01-23T00:21:14.070Z,26.07
2019-01-23T00:23:43.389Z,24.93
2019-01-23T00:26:12.663Z,24.60
2019-01-23T00:28:42.428Z,25.83
2019-01-23T00:31:11.401Z,26.23
2019-01-23T00:33:40.743Z,26.20
2019-01-23T00:36:09.997Z,25.53
2019-01-23T00:38:39.353Z,25.30
2019-01-23T00:41:08.621Z,26.17
2019-01-23T00:43:37.935Z,29.83
2019-01-23T00:46:07.317Z,26.93
2019-01-23T00:48:36.677Z,27.10
2019-01-23T00:51:06.009Z,26.70
2019-01-23T00:53:35.464Z,24.83
2019-01-23T00:56:04.869Z,25.20
2019-01-23T00:58:34.263Z,27.87
2019-01-23T01:01:03.568Z,26.37
2019-01-23T01:03:35.941Z,24.93
2019-01-23T01:06:05.283Z,25.60
2019-01-23T01:08:34.565Z,26.67
2019-01-23T01:11:03.873Z,27.27
2019-01-23T01:13:33.144Z,26.30
2019-01-23T01:16:02.456Z,27.17
2019-01-23T01:18:31.749Z,28.03
2019-01-23T01:21:01.144Z,28.43
2019-01-23T01:23:30.443Z,26.27
2019-01-23T01:25:59.751Z,25.10
2019-01-23T01:28:29.046Z,27.50
2019-01-23T01:30:58.345Z,27.87
2019-01-23T01:33:27.617Z,27.13
2019-01-23T01:35:56.950Z,28.57
2019-01-23T01:38:26.265Z,26.70
2019-01-23T01:40:55.641Z,27.00
2019-01-23T01:43:25.030Z,27.70
2019-01-23T01:45:54.368Z,28.63
2019-01-23T01:48:23.739Z,27.80
2019-01-23T01:50:53.022Z,28.00
2019-01-23T01:53:22.305Z,27.47
2019-01-23T01:55:51.621Z,27.43
2019-01-23T01:58:20.965Z,27.63
2019-01-23T02:00:50.223Z,30.50
2019-01-23T02:03:19.510Z,28.77
2019-01-23T02:05:48.834Z,28.50
2019-01-23T02:08:18.130Z,28.30
2019-01-23T02:10:47.434Z,27.43
2019-01-23T02:13:16.751Z,27.93
2019-01-23T02:15:46.135Z,27.13
2019-01-23T02:18:15.459Z,26.70
2019-01-23T02:20:44.732Z,27.23
2019-01-23T02:23:14.061Z,28.53
2019-01-23T02:25:43.442Z,27.80
2019-01-23T02:28:12.778Z,28.17
2019-01-23T02:30:42.154Z,27.87
2019-01-23T02:33:11.533Z,28.60
2019-01-23T02:35:40.863Z,26.83
2019-01-23T02:38:10.137Z,27.53
2019-01-23T02:40:39.409Z,27.23
2019-01-23T02:43:08.775Z,26.90
2019-01-23T02:45:38.099Z,28.53
2019-01-23T02:48:07.454Z,27.47
2019-01-23T02:50:36.749Z,28.13
2019-01-23T02:53:06.058Z,29.47
2019-01-23T02:55:35.389Z,26.80
2019-01-23T02:58:04.763Z,26.80
2019-01-23T03:00:34.057Z,27.83
2019-01-23T03:03:03.347Z,28.00
2019-01-23T03:05:32.719Z,26.43
2019-01-23T03:08:02.053Z,27.40
2019-01-23T03:10:31.504Z,27.77
2019-01-23T03:13:00.770Z,27.03
2019-01-23T03:15:30.107Z,27.10
2019-01-23T03:17:59.481Z,27.50
2019-01-23T03:20:28.807Z,28.33
2019-01-23T03:22:58.195Z,25.97
2019-01-23T03:25:27.485Z,26.87
2019-01-23T03:27:56.775Z,27.57
2019-01-23T03:30:26.080Z,26.97
2019-01-23T03:32:55.387Z,29.57
2019-01-23T03:35:24.651Z,27.30
2019-01-23T03:37:53.980Z,26.83
2019-01-23T03:40:23.246Z,27.37
2019-01-23T03:42:52.551Z,26.63
2019-01-23T03:45:21.857Z,27.43
2019-01-23T03:47:51.227Z,26.63
2019-01-23T03:50:20.774Z,26.37
2019-01-23T03:52:50.148Z,27.10
2019-01-23T03:55:19.607Z,27.00
2019-01-23T03:57:48.991Z,28.10
2019-01-23T04:00:19.960Z,27.20
2019-01-23T04:02:49.390Z,28.40
2019-01-23T04:05:18.719Z,27.87
2019-01-23T04:07:48.064Z,29.80
2019-01-23T04:10:17.422Z,27.67
2019-01-23T04:12:46.701Z,28.07
2019-01-23T04:15:16.124Z,26.97
2019-01-23T04:17:45.364Z,26.93
2019-01-23T04:20:16.315Z,26.33
2019-01-23T04:22:45.592Z,25.60
2019-01-23T04:25:15.003Z,26.77
2019-01-23T04:27:44.239Z,28.33
2019-01-23T04:30:21.706Z,26.10
2019-01-23T04:32:51.191Z,26.70
2019-01-23T04:35:20.475Z,26.53
2019-01-23T04:37:49.786Z,25.53
2019-01-23T04:40:19.110Z,26.17
2019-01-23T04:42:48.396Z,27.07
2019-01-23T04:45:17.696Z,26.23
2019-01-23T04:47:46.944Z,25.93
2019-01-23T04:50:16.811Z,26.10
2019-01-23T04:53:05.158Z,27.57
2019-01-23T04:55:35.389Z,27.30
2019-01-23T04:58:04.794Z,27.30
2019-01-23T05:00:34.105Z,25.40
2019-01-23T05:03:03.382Z,28.03
2019-01-23T05:05:32.801Z,26.33
2019-01-23T05:08:02.198Z,27.53
2019-01-23T05:10:31.510Z,26.07
2019-01-23T05:13:00.788Z,26.10
2019-01-23T05:15:30.124Z,29.10
2019-01-23T05:17:59.436Z,27.87
2019-01-23T05:20:28.832Z,26.53
2019-01-23T05:22:58.105Z,27.77
2019-01-23T05:25:27.424Z,25.87
2019-01-23T05:27:56.820Z,26.67
2019-01-23T05:30:26.258Z,27.40
2019-01-23T05:32:55.562Z,27.53
2019-01-23T05:35:24.842Z,28.83
2019-01-23T05:37:54.690Z,28.17
2019-01-23T05:40:23.892Z,26.93
2019-01-23T05:42:53.199Z,26.27
2019-01-23T05:45:22.525Z,28.73
2019-01-23T05:47:51.838Z,27.97
2019-01-23T05:50:21.098Z,27.03
2019-01-23T05:52:50.449Z,27.37
2019-01-23T05:55:19.820Z,28.30
2019-01-23T05:57:49.148Z,27.73
2019-01-23T06:00:19.694Z,27.07
2019-01-23T06:02:48.989Z,26.27
2019-01-23T06:05:18.354Z,25.13
2019-01-23T06:07:47.690Z,27.00
2019-01-23T06:10:16.962Z,26.13
2019-01-23T06:12:46.232Z,27.00
2019-01-23T06:15:15.578Z,26.77
2019-01-23T06:17:44.872Z,26.13
2019-01-23T06:20:16.044Z,27.30
2019-01-23T06:22:45.413Z,26.37
2019-01-23T06:25:14.685Z,30.43
2019-01-23T06:27:44.015Z,26.93
2019-01-23T06:30:15.917Z,27.47
2019-01-23T06:32:45.310Z,26.77
2019-01-23T06:35:14.562Z,27.17
2019-01-23T06:37:43.899Z,26.60
2019-01-23T06:40:13.408Z,27.77
2019-01-23T06:42:42.766Z,26.63
2019-01-23T06:45:14.796Z,25.57
2019-01-23T06:47:44.226Z,37.50
2019-01-23T06:50:15.753Z,31.80
2019-01-23T06:52:45.115Z,27.63
2019-01-23T06:55:14.448Z,27.30
2019-01-23T06:57:43.772Z,26.73
2019-01-23T07:00:18.278Z,21.90
2019-01-23T07:02:47.540Z,30.87
2019-01-23T07:05:16.880Z,30.03
2019-01-23T07:07:46.234Z,28.67
2019-01-23T07:10:18.332Z,26.20
2019-01-23T07:12:47.816Z,25.00
2019-01-23T07:15:17.220Z,27.03
2019-01-23T07:17:46.533Z,26.83
2019-01-23T07:20:18.482Z,25.97
2019-01-23T07:22:47.759Z,26.77
2019-01-23T07:25:17.101Z,26.00
2019-01-23T07:27:46.412Z,23.27
2019-01-23T07:30:39.554Z,25.80
2019-01-23T07:33:08.873Z,25.83
2019-01-23T07:35:38.159Z,26.37
2019-01-23T07:38:07.705Z,25.17
2019-01-23T07:40:37.062Z,25.37
2019-01-23T07:43:06.386Z,24.23
2019-01-23T07:45:35.768Z,24.60
2019-01-23T07:48:05.058Z,26.63
2019-01-23T07:50:34.323Z,25.00
2019-01-23T07:53:03.622Z,25.77
2019-01-23T07:55:32.949Z,25.47
2019-01-23T07:58:02.284Z,25.30
2019-01-23T08:00:31.830Z,21.50
2019-01-23T08:03:01.102Z,27.00
2019-01-23T08:05:30.517Z,29.80
2019-01-23T08:07:59.893Z,29.73
2019-01-23T08:10:29.369Z,27.40
2019-01-23T08:12:58.699Z,25.73
2019-01-23T08:15:30.372Z,25.13
2019-01-23T08:17:59.620Z,24.90
2019-01-23T08:20:28.957Z,24.97
2019-01-23T08:22:58.258Z,25.90
2019-01-23T08:25:27.586Z,27.67
2019-01-23T08:27:56.878Z,24.67
2019-01-23T08:30:26.250Z,24.20
2019-01-23T08:32:55.672Z,25.80
2019-01-23T08:35:25.100Z,24.57
2019-01-23T08:37:54.474Z,25.63
2019-01-23T08:40:23.783Z,25.77
2019-01-23T08:42:53.078Z,24.53
2019-01-23T08:45:22.408Z,25.63
2019-01-23T08:47:51.780Z,25.10
2019-01-23T08:50:33.027Z,25.67
2019-01-23T08:53:02.347Z,27.23
2019-01-23T08:55:31.676Z,24.83
2019-01-23T08:58:00.990Z,26.00
2019-01-23T09:00:30.322Z,24.43
2019-01-23T09:02:59.654Z,23.63
2019-01-23T09:05:29.076Z,23.93
2019-01-23T09:07:58.446Z,25.00
2019-01-23T09:10:27.766Z,24.90
2019-01-23T09:12:57.047Z,25.03
2019-01-23T09:15:26.326Z,25.23
2019-01-23T09:17:55.702Z,24.43
2019-01-23T09:20:25.003Z,25.53
2019-01-23T09:22:54.312Z,24.50
2019-01-23T09:25:24.222Z,23.50
2019-01-23T09:27:53.627Z,24.67
2019-01-23T09:30:26.003Z,24.33
2019-01-23T09:33:29.626Z,24.83
2019-01-23T09:36:36.986Z,23.90
2019-01-23T09:39:24.031Z,23.63
2019-01-23T09:42:41.857Z,23.63
2019-01-23T09:45:51.689Z,23.27
2019-01-23T09:48:46.100Z,24.97
2019-01-23T09:52:06.196Z,23.87
2019-01-23T09:54:35.469Z,24.83
2019-01-23T09:57:04.760Z,23.83
2019-01-23T09:59:34.076Z,23.60
2019-01-23T10:02:03.351Z,24.07
2019-01-23T10:04:32.712Z,23.90
2019-01-23T10:07:02.058Z,22.70
2019-01-23T10:09:31.324Z,24.90
2019-01-23T10:12:00.709Z,27.43
2019-01-23T10:14:29.966Z,24.93
2019-01-23T10:16:59.259Z,26.33
2019-01-23T10:19:28.535Z,25.73
2019-01-23T10:21:57.888Z,26.13
2019-01-23T10:24:27.161Z,28.53
2019-01-23T10:26:56.499Z,26.73
2019-01-23T10:29:25.794Z,28.33
2019-01-23T10:31:55.082Z,28.63
2019-01-23T10:34:24.331Z,28.07
2019-01-23T10:36:54.228Z,25.83
2019-01-23T10:39:23.474Z,28.47
2019-01-23T10:41:52.810Z,27.80
2019-01-23T10:44:22.076Z,27.20
2019-01-23T10:46:51.419Z,26.67
2019-01-23T10:49:20.788Z,27.43
2019-01-23T10:51:50.078Z,28.87
2019-01-23T10:54:19.406Z,27.10
2019-01-23T10:56:48.706Z,27.33
2019-01-23T10:59:18.456Z,28.70
2019-01-23T11:01:47.719Z,29.50
2019-01-23T11:04:17.034Z,30.63
2019-01-23T11:06:46.300Z,29.33
2019-01-23T11:09:15.639Z,29.57
2019-01-23T11:11:44.868Z,31.53
2019-01-23T11:14:14.155Z,29.60
2019-01-23T11:16:43.402Z,28.93
2019-01-23T11:19:12.707Z,29.57
2019-01-23T11:21:42.022Z,29.67
2019-01-23T11:24:11.344Z,29.90
2019-01-23T11:26:40.646Z,28.43
2019-01-23T11:29:09.968Z,28.70
2019-01-23T11:31:39.382Z,28.07
2019-01-23T11:34:08.674Z,26.43
2019-01-23T11:36:37.986Z,28.87
2019-01-23T11:39:09.598Z,29.00
2019-01-23T11:41:38.911Z,26.87
2019-01-23T11:44:08.229Z,27.30
2019-01-23T11:46:37.642Z,28.10
2019-01-23T11:49:06.886Z,28.40
2019-01-23T11:51:36.228Z,27.33
2019-01-23T11:54:05.560Z,28.67
2019-01-23T11:56:34.850Z,28.63
2019-01-23T11:59:04.122Z,28.50
2019-01-23T12:01:33.478Z,27.57
2019-01-23T12:04:02.767Z,28.77
2019-01-23T12:06:32.049Z,31.17
2019-01-23T12:09:01.350Z,29.27
2019-01-23T12:11:30.654Z,28.50
2019-01-23T12:14:00.050Z,27.77
2019-01-23T12:16:29.266Z,26.17
2019-01-23T12:18:58.554Z,27.17
2019-01-23T12:21:27.892Z,27.97
2019-01-23T12:23:58.417Z,28.97
2019-01-23T12:26:26.582Z,28.83
2019-01-23T12:28:55.983Z,28.37
2019-01-23T12:31:25.420Z,27.17
2019-01-23T12:33:54.754Z,26.67
2019-01-23T12:36:24.082Z,26.90
2019-01-23T12:38:53.398Z,27.67
2019-01-23T12:41:22.791Z,28.73
2019-01-23T12:43:52.232Z,26.70
2019-01-23T12:46:21.544Z,26.77
2019-01-23T12:48:50.932Z,26.50
2019-01-23T12:51:20.238Z,27.03
2019-01-23T12:53:49.553Z,26.47
2019-01-23T12:56:18.892Z,26.60
2019-01-23T12:58:48.201Z,26.57
2019-01-23T13:01:17.520Z,27.40
2019-01-23T13:03:46.812Z,27.17
2019-01-23T13:06:16.108Z,26.80
2019-01-23T13:08:45.442Z,27.97
2019-01-23T13:11:15.154Z,26.50
2019-01-23T13:13:44.452Z,27.80
2019-01-23T13:16:13.771Z,28.00
2019-01-23T13:18:43.116Z,26.77
2019-01-23T13:21:12.418Z,26.87
2019-01-23T13:23:41.744Z,26.93
2019-01-23T13:26:11.300Z,26.87
2019-01-23T13:28:40.544Z,26.23
2019-01-23T13:31:09.806Z,28.40
2019-01-23T13:33:39.166Z,27.03
2019-01-23T13:36:09.587Z,28.23
2019-01-23T13:38:39.079Z,29.67
2019-01-23T13:41:08.386Z,26.70
2019-01-23T13:43:37.766Z,27.77
2019-01-23T13:46:07.186Z,27.17
2019-01-23T13:48:36.482Z,26.03
2019-01-23T13:51:05.781Z,28.37
2019-01-23T13:53:35.057Z,33.17
2019-01-23T13:56:04.449Z,29.10
2019-01-23T13:58:33.785Z,29.00
2019-01-23T14:01:03.146Z,30.33
2019-01-23T14:03:32.487Z,31.47
2019-01-23T14:06:01.892Z,33.53
2019-01-23T14:08:31.230Z,34.60
2019-01-23T14:11:00.576Z,34.90
2019-01-23T14:13:29.946Z,34.73
2019-01-23T14:15:59.303Z,34.47
2019-01-23T14:18:30.650Z,34.23
2019-01-23T14:21:00.430Z,33.67
2019-01-23T14:23:29.993Z,36.30
2019-01-23T14:25:59.312Z,34.77
2019-01-23T14:28:29.037Z,36.20
2019-01-23T14:30:58.344Z,39.37
2019-01-23T14:33:27.656Z,36.63
2019-01-23T14:35:57.135Z,36.83
2019-01-23T14:38:26.500Z,37.53
2019-01-23T14:40:55.792Z,36.03
2019-01-23T14:43:25.114Z,37.67
2019-01-23T14:45:54.424Z,38.10
2019-01-23T14:48:23.777Z,39.43
2019-01-23T14:50:53.094Z,39.33
2019-01-23T14:53:22.423Z,37.53
2019-01-23T14:55:52.104Z,37.73
2019-01-23T14:58:21.430Z,38.10
2019-01-23T15:00:50.724Z,41.03
2019-01-23T15:03:20.076Z,41.07
2019-01-23T15:05:49.600Z,42.33
2019-01-23T15:08:19.070Z,41.53
2019-01-23T15:10:48.365Z,43.77
2019-01-23T15:13:17.774Z,44.90
2019-01-23T15:15:47.056Z,42.23
2019-01-23T15:18:16.389Z,41.37
2019-01-23T15:20:45.708Z,43.73
2019-01-23T15:23:15.044Z,41.83
2019-01-23T15:25:44.353Z,43.33
2019-01-23T15:28:13.676Z,44.73
2019-01-23T15:30:43.037Z,42.27
2019-01-23T15:33:12.434Z,45.30
2019-01-23T15:35:41.802Z,46.10
2019-01-23T15:38:11.110Z,40.77
2019-01-23T15:40:40.442Z,44.77
2019-01-23T15:43:09.704Z,47.20
2019-01-23T15:45:39.046Z,44.67
2019-01-23T15:48:08.317Z,44.37
2019-01-23T15:50:37.734Z,44.67
2019-01-23T15:53:07.015Z,45.83
2019-01-23T15:55:36.335Z,43.57
2019-01-23T15:58:05.700Z,47.63
2019-01-23T16:00:35.136Z,46.00
2019-01-23T16:03:04.491Z,45.67
2019-01-23T16:05:33.758Z,45.77
2019-01-23T16:08:03.108Z,44.17
2019-01-23T16:10:32.539Z,43.57
2019-01-23T16:13:03.015Z,43.27
2019-01-23T16:15:31.333Z,42.47
2019-01-23T16:18:00.657Z,41.80
2019-01-23T16:20:30.027Z,43.20
2019-01-23T16:22:59.293Z,40.17
2019-01-23T16:25:28.650Z,41.90
2019-01-23T16:27:58.018Z,38.87
2019-01-23T16:30:29.990Z,41.43
2019-01-23T16:32:59.276Z,42.07
2019-01-23T16:35:28.816Z,40.03
2019-01-23T16:37:58.283Z,40.73
2019-01-23T16:40:27.584Z,41.23
2019-01-23T16:42:56.952Z,41.63
2019-01-23T16:45:26.322Z,41.30
2019-01-23T16:47:55.625Z,38.27
2019-01-23T16:50:25.314Z,40.80
2019-01-23T16:52:54.622Z,39.70
2019-01-23T16:55:23.912Z,39.00
2019-01-23T16:57:53.444Z,39.07
2019-01-23T17:00:23.543Z,39.57
2019-01-23T17:02:53.367Z,38.93
2019-01-23T17:05:27.132Z,39.00
2019-01-23T17:07:57.218Z,36.90
2019-01-23T17:10:26.801Z,38.20
2019-01-23T17:12:56.232Z,36.60
2019-01-23T17:15:25.798Z,38.23
2019-01-23T17:17:55.123Z,37.93
2019-01-23T17:20:35.666Z,38.63
2019-01-23T17:23:05.183Z,37.40
2019-01-23T17:25:34.568Z,37.87
2019-01-23T17:28:04.196Z,36.87
2019-01-23T17:30:33.533Z,39.60
2019-01-23T17:33:02.864Z,40.70
2019-01-23T17:35:32.190Z,39.07
2019-01-23T17:38:01.591Z,39.13
2019-01-23T17:40:30.921Z,38.50
2019-01-23T17:43:00.202Z,38.17
2019-01-23T17:45:31.997Z,37.83
2019-01-23T17:48:01.313Z,36.67
2019-01-23T17:50:30.683Z,38.70
2019-01-23T17:53:00.021Z,38.10
2019-01-23T17:55:34.305Z,37.57
2019-01-23T17:58:03.995Z,35.97
2019-01-23T18:00:36.409Z,37.43
2019-01-23T18:03:05.996Z,36.40
2019-01-23T18:05:35.346Z,35.17
2019-01-23T18:08:04.744Z,37.07
2019-01-23T18:10:33.978Z,36.10
2019-01-23T18:13:03.290Z,36.70
2019-01-23T18:15:32.670Z,37.07
2019-01-23T18:18:01.983Z,37.87
2019-01-23T18:20:31.682Z,39.93
2019-01-23T18:23:00.967Z,35.77
2019-01-23T18:25:30.243Z,35.37
2019-01-23T18:27:59.584Z,34.90
2019-01-23T18:30:32.592Z,37.20
2019-01-23T18:33:02.966Z,33.27
2019-01-23T18:36:25.956Z,33.67
2019-01-23T18:39:24.341Z,34.10
2019-01-23T18:42:38.176Z,35.03
2019-01-23T18:45:51.135Z,34.50
2019-01-23T18:48:54.640Z,33.60
2019-01-23T18:51:42.562Z,35.20
2019-01-23T18:54:11.854Z,33.43
2019-01-23T18:56:41.131Z,32.57
2019-01-23T18:59:10.482Z,33.70
2019-01-23T19:01:39.790Z,35.73
2019-01-23T19:04:09.105Z,35.37
2019-01-23T19:06:38.444Z,35.40
2019-01-23T19:09:10.139Z,37.20
2019-01-23T19:11:39.506Z,38.73
2019-01-23T19:14:08.818Z,37.60
2019-01-23T19:16:40.290Z,38.90
2019-01-23T19:19:07.640Z,43.90
2019-01-23T19:21:36.972Z,38.43
2019-01-23T19:24:06.342Z,39.07
2019-01-23T19:26:35.685Z,40.03
2019-01-23T19:29:04.977Z,39.13
2019-01-23T19:31:34.608Z,38.30
2019-01-23T19:34:04.066Z,38.90
2019-01-23T19:36:33.470Z,39.43
2019-01-23T19:39:02.798Z,39.63
2019-01-23T19:41:32.283Z,40.20
2019-01-23T19:44:01.671Z,42.33
2019-01-23T19:46:31.000Z,45.43
2019-01-23T19:49:00.366Z,41.30
2019-01-23T19:51:29.749Z,40.50
2019-01-23T19:53:59.093Z,41.63
2019-01-23T19:56:28.500Z,42.03
2019-01-23T19:58:57.947Z,42.13
2019-01-23T20:01:27.394Z,45.27
2019-01-23T20:03:56.703Z,43.10
2019-01-23T20:06:29.328Z,43.17
2019-01-23T20:08:58.701Z,41.63
2019-01-23T20:11:28.044Z,42.60
2019-01-23T20:13:59.384Z,43.10
2019-01-23T20:16:26.682Z,40.97
2019-01-23T20:18:56.246Z,42.70
2019-01-23T20:21:25.589Z,45.57
2019-01-23T20:23:55.012Z,42.93
2019-01-23T20:26:24.343Z,44.47
2019-01-23T20:28:53.733Z,43.37
2019-01-23T20:31:25.368Z,45.37
2019-01-23T20:33:54.676Z,45.53
2019-01-23T20:36:23.973Z,46.50
2019-01-23T20:38:53.393Z,47.50
2019-01-23T20:41:22.770Z,44.63
2019-01-23T20:43:52.207Z,46.53
2019-01-23T20:46:22.893Z,46.07
2019-01-23T20:48:52.242Z,48.43
2019-01-23T20:51:21.698Z,48.73
2019-01-23T20:53:51.038Z,45.87
2019-01-23T20:56:20.407Z,46.13
2019-01-23T20:58:49.819Z,45.07
2019-01-23T21:01:19.170Z,48.53
2019-01-23T21:03:48.474Z,47.77
2019-01-23T21:06:17.773Z,47.40
2019-01-23T21:08:50.618Z,47.03
2019-01-23T21:11:19.921Z,48.80
2019-01-23T21:13:49.396Z,46.63
2019-01-23T21:16:18.689Z,49.13
2019-01-23T21:18:47.971Z,52.40
2019-01-23T21:21:18.806Z,49.33
2019-01-23T21:23:48.097Z,49.33
2019-01-23T21:26:20.501Z,49.47
2019-01-23T21:28:49.876Z,47.57
2019-01-23T21:31:19.362Z,50.00
2019-01-23T21:33:48.672Z,46.63
2019-01-23T21:36:18.013Z,49.60
2019-01-23T21:38:47.317Z,47.43
2019-01-23T21:41:16.856Z,50.30
2019-01-23T21:43:46.162Z,48.70
2019-01-23T21:46:15.565Z,50.63
2019-01-23T21:48:44.936Z,51.40
2019-01-23T21:51:14.266Z,48.20
2019-01-23T21:53:43.566Z,51.47
2019-01-23T21:56:12.920Z,51.23
2019-01-23T21:58:42.230Z,52.90
2019-01-23T22:01:11.566Z,53.07
2019-01-23T22:03:40.877Z,53.37
2019-01-23T22:06:10.176Z,52.57
2019-01-23T22:08:39.614Z,54.67
2019-01-23T22:11:08.892Z,53.20
2019-01-23T22:13:38.195Z,53.10
2019-01-23T22:16:07.473Z,54.93
2019-01-23T22:18:36.786Z,53.37
2019-01-23T22:21:06.360Z,53.23
2019-01-23T22:23:35.709Z,52.60
2019-01-23T22:26:05.090Z,52.87
2019-01-23T22:28:34.398Z,56.20
2019-01-23T22:31:03.795Z,55.10
2019-01-23T22:33:33.112Z,53.77
2019-01-23T22:36:05.536Z,54.60
2019-01-23T22:38:35.193Z,54.37
2019-01-23T22:41:04.540Z,54.17
2019-01-23T22:43:34.095Z,53.37
2019-01-23T22:46:03.365Z,52.27
2019-01-23T22:48:33.085Z,53.93
2019-01-23T22:51:02.533Z,54.30
2019-01-23T22:53:31.814Z,55.37
2019-01-23T22:56:01.212Z,53.33
2019-01-23T22:58:30.512Z,53.93
2019-01-23T23:01:09.746Z,55.13
2019-01-23T23:03:39.144Z,54.90
2019-01-23T23:06:08.501Z,56.30
2019-01-23T23:08:37.824Z,57.40
2019-01-23T23:11:07.166Z,56.57
2019-01-23T23:13:36.520Z,52.87
2019-01-23T23:16:05.836Z,53.87
2019-01-23T23:18:35.350Z,50.63
2019-01-23T23:21:04.876Z,49.80
2019-01-23T23:23:34.262Z,52.07
2019-01-23T23:26:03.726Z,51.57
2019-01-23T23:28:33.046Z,49.87
2019-01-23T23:31:02.432Z,48.20
2019-01-23T23:33:31.662Z,49.90
2019-01-23T23:36:01.132Z,51.00
2019-01-23T23:38:30.376Z,49.13
2019-01-23T23:40:59.666Z,46.00
2019-01-23T23:43:28.966Z,43.47
2019-01-23T23:45:58.257Z,42.97
2019-01-23T23:48:27.600Z,42.43
2019-01-23T23:50:56.976Z,41.23
2019-01-23T23:53:26.352Z,40.67
2019-01-23T23:55:55.666Z,41.90
2019-01-23T23:58:25.104Z,41.53
